Friday, November 24, 2017, 8:16 AM EST
Back to Local

KAUG, Augusta State Airport

Location: Augusta, ME, United States Lat: 44.317
Local Time: 8:16 AM EST (13:16 GMT) Lon: -69.8
Time Zone: US/Eastern Elev: 351 ft

Show me the last for .
Show Decoded

2017-11-24 07:53 METAR KAUG 241253Z AUTO 22004KT 10SM OVC070 M01/M06 A2994 RMK AO2 SLP142
                 T10061061 =
2017-11-24 06:53 METAR KAUG 241153Z AUTO 20003KT 10SM OVC075 M02/M07 A2994 RMK AO2 SLP142
                 T10221067 11011 21022 53011 =
2017-11-24 05:53 METAR KAUG 241053Z AUTO 19003KT 10SM SCT080 M02/M07 A2992 RMK AO2 SLP137
                 T10221072 =
2017-11-24 04:53 METAR KAUG 240953Z AUTO VRB03KT 10SM BKN085 M02/M07 A2991 RMK AO2 SLP135
                 T10221067 =
2017-11-24 03:53 METAR KAUG 240853Z AUTO VRB04KT 10SM OVC090 M02/M07 A2990 RMK AO2 SLP130
                 T10171067 58001 =
2017-11-24 02:53 METAR KAUG 240753Z AUTO 19005KT 10SM OVC100 M02/M07 A2990 RMK AO2 SLP129
                 T10171072 =
2017-11-24 01:53 METAR KAUG 240653Z AUTO 21004KT 10SM OVC090 M02/M07 A2991 RMK AO2 SLP134
                 T10171072 =
2017-11-24 00:53 METAR KAUG 240553Z AUTO 22003KT 10SM OVC100 M02/M07 A2991 RMK AO2 SLP131
                 T10171067 10000 21017 55004 =
2017-11-23 23:53 METAR KAUG 240453Z AUTO 22003KT 10SM OVC100 M01/M08 A2990 RMK AO2 SLP131
                 T10111078 400221028 =
2017-11-23 22:53 METAR KAUG 240353Z AUTO 00000KT 10SM OVC100 M01/M09 A2990 RMK AO2 SLP131
                 T10061089 =
2017-11-23 21:53 METAR KAUG 240253Z AUTO 00000KT 10SM OVC095 M01/M09 A2992 RMK AO2 SLP136
                 T10061094 56008 =
2017-11-23 20:53 METAR KAUG 240153Z AUTO 27004KT 10SM OVC095 M01/M09 A2993 RMK AO2 SLP139
                 T10061089 =
2017-11-23 19:53 METAR KAUG 240053Z AUTO 00000KT 10SM OVC100 M01/M09 A2993 RMK AO2 SLP141
                 T10061089 =
2017-11-23 18:53 METAR KAUG 232353Z AUTO 00000KT 10SM OVC100 M01/M09 A2995 RMK AO2 SLP145
                 T10061094 10022 21011 52001 =
2017-11-23 17:53 METAR KAUG 232253Z AUTO 32006KT 10SM OVC100 M01/M09 A2994 RMK AO2 SLP145
                 T10111089 =
2017-11-23 16:53 METAR KAUG 232153Z AUTO 30006KT 10SM OVC110 M01/M09 A2995 RMK AO2 SLP146
                 T10061094 =
2017-11-23 15:53 METAR KAUG 232053Z AUTO 29005KT 10SM OVC120 00/M09 A2994 RMK AO2 SLP144
                 T00001094 53007 =
2017-11-23 14:53 METAR KAUG 231953Z AUTO 26005KT 10SM CLR 01/M09 A2993 RMK AO2 SLP138 T00061089 =
2017-11-23 13:53 METAR KAUG 231853Z AUTO 29008KT 10SM CLR 02/M09 A2992 RMK AO2 SLP136 T00171089 =
2017-11-23 12:53 METAR KAUG 231753Z AUTO 29009KT 10SM CLR 02/M08 A2992 RMK AO2 SLP137 T00171083
                 10017 21028 58013 =
2017-11-23 11:53 METAR KAUG 231653Z AUTO 28008KT 240V310 10SM CLR 01/M08 A2994 RMK AO2 SLP142
                 T00111083 =
2017-11-23 10:53 METAR KAUG 231553Z AUTO 28009KT 10SM CLR 00/M09 A2995 RMK AO2 SLP146 T00001089 =
2017-11-23 09:53 METAR KAUG 231453Z AUTO 30010KT 10SM CLR M01/M09 A2996 RMK AO2 SLP150 T10061089
                 51007 =
2017-11-23 08:53 METAR KAUG 231353Z AUTO 29007G15KT 240V320 10SM CLR M02/M09 A2996 RMK AO2 SLP150
                 T10171089 =

Support USWX by starting your Amazon purchase here.